Time;durP1;ratioP1;P1;durP2;ratioP2;P2;SDS_P1;SDS_P2;PMS_P1;PMS_P2;Temp;Humidity;BMP_temperature;BMP_pressure;BME280_temperature;BME280_humidity;BME280_pressure;Samples;Min_cycle;Max_cycle;Signal;HPM_P1;HPM_P2
2021/10/09 00:01:08;;;;;;;38.33;19.55;;;;;;;;;;5013592;28;20065;-63
2021/10/09 00:03:35;;;;;;;39.08;19.92;;;;;;;;;;5014022;28;20052;-63
2021/10/09 00:06:02;;;;;;;44.03;21.38;;;;;;;;;;5013453;28;20050;-63
2021/10/09 00:08:32;;;;;;;44.50;20.00;;;;;;;;;;5013771;28;20133;-62
2021/10/09 00:10:59;;;;;;;37.70;19.10;;;;;;;;;;5013696;28;20406;-63
2021/10/09 00:13:25;;;;;;;42.22;19.88;;;;;;;;;;5051283;22;20045;-59
2021/10/09 00:15:53;;;;;;;45.33;21.70;;;;;;;;;;5053350;28;20104;-60
2021/10/09 00:18:20;;;;;;;40.55;20.65;;;;;;;;;;5053375;28;20072;-62
2021/10/09 00:20:46;;;;;;;40.65;19.85;;;;;;;;;;5053087;28;20049;-59
2021/10/09 00:23:13;;;;;;;42.03;19.15;;;;;;;;;;5053271;28;20052;-61
2021/10/09 00:25:42;;;;;;;42.20;19.60;;;;;;;;;;5053244;28;20059;-61
2021/10/09 00:28:09;;;;;;;41.30;21.17;;;;;;;;;;5053128;28;20052;-61
2021/10/09 00:30:36;;;;;;;41.55;19.63;;;;;;;;;;5053116;28;20055;-61
2021/10/09 00:33:02;;;;;;;43.03;21.27;;;;;;;;;;5052994;28;20049;-61
2021/10/09 00:35:30;;;;;;;45.53;23.42;;;;;;;;;;5052743;28;20055;-62
2021/10/09 00:37:57;;;;;;;43.10;19.75;;;;;;;;;;5053047;28;20194;-62
2021/10/09 00:40:24;;;;;;;44.67;22.05;;;;;;;;;;5052741;28;20535;-61
2021/10/09 00:42:52;;;;;;;47.30;21.10;;;;;;;;;;5053051;28;20485;-63
2021/10/09 00:45:19;;;;;;;43.58;20.48;;;;;;;;;;5052785;28;20140;-60
2021/10/09 00:47:46;;;;;;;45.40;20.58;;;;;;;;;;5052914;28;20049;-60
2021/10/09 00:50:13;;;;;;;39.33;19.95;;;;;;;;;;5052902;28;20063;-61
2021/10/09 00:52:42;;;;;;;41.20;21.48;;;;;;;;;;5052789;28;20088;-60
2021/10/09 00:55:10;;;;;;;41.67;20.38;;;;;;;;;;5052350;28;20402;-61
2021/10/09 00:57:40;;;;;;;40.63;19.52;;;;;;;;;;5032719;28;20441;-60
2021/10/09 01:00:09;;;;;;;45.90;20.53;;;;;;;;;;5032804;28;20045;-61
2021/10/09 01:02:37;;;;;;;43.17;21.10;;;;;;;;;;5032487;28;20046;-61
2021/10/09 01:05:05;;;;;;;46.60;23.20;;;;;;;;;;5032819;28;20410;-61
2021/10/09 01:07:32;;;;;;;41.88;20.73;;;;;;;;;;5032668;28;20045;-61
2021/10/09 01:10:00;;;;;;;42.67;20.63;;;;;;;;;;5032493;28;20136;-61
2021/10/09 01:12:27;;;;;;;46.30;22.55;;;;;;;;;;5032771;28;20049;-60
2021/10/09 01:14:54;;;;;;;44.60;20.33;;;;;;;;;;5032199;28;20525;-61
2021/10/09 01:17:23;;;;;;;45.35;21.65;;;;;;;;;;5032564;28;20060;-62
2021/10/09 01:19:50;;;;;;;42.83;22.10;;;;;;;;;;5032539;28;20140;-60
2021/10/09 01:22:19;;;;;;;49.45;24.17;;;;;;;;;;5032226;28;20482;-60
2021/10/09 01:24:46;;;;;;;46.58;22.23;;;;;;;;;;5032164;28;20590;-61
2021/10/09 01:27:16;;;;;;;48.03;21.75;;;;;;;;;;5032303;28;20140;-60
2021/10/09 01:29:44;;;;;;;44.17;21.10;;;;;;;;;;5032037;28;20072;-59
2021/10/09 01:32:11;;;;;;;45.17;22.48;;;;;;;;;;5032346;28;20049;-59
2021/10/09 01:34:38;;;;;;;47.65;21.13;;;;;;;;;;5032016;28;20144;-60
2021/10/09 01:37:05;;;;;;;44.45;22.17;;;;;;;;;;5032180;28;20140;-61
2021/10/09 01:39:33;;;;;;;44.42;20.70;;;;;;;;;;5032199;28;20136;-61
2021/10/09 01:42:00;;;;;;;46.03;21.52;;;;;;;;;;5031761;28;20136;-61
2021/10/09 01:44:27;;;;;;;44.72;21.85;;;;;;;;;;5032482;28;20057;-60
2021/10/09 01:46:54;;;;;;;47.47;22.75;;;;;;;;;;5031920;28;20053;-61
2021/10/09 01:49:21;;;;;;;47.05;21.55;;;;;;;;;;5032042;28;20049;-61
2021/10/09 01:51:48;;;;;;;46.58;22.13;;;;;;;;;;5031564;28;20067;-61
2021/10/09 01:54:15;;;;;;;44.47;21.40;;;;;;;;;;5031788;28;20060;-61
2021/10/09 01:56:44;;;;;;;46.22;22.33;;;;;;;;;;5019370;28;20132;-61
2021/10/09 01:59:11;;;;;;;47.03;21.73;;;;;;;;;;5012061;28;20056;-60
2021/10/09 02:01:38;;;;;;;49.58;22.02;;;;;;;;;;5012153;28;20050;-60
2021/10/09 02:04:05;;;;;;;43.28;21.60;;;;;;;;;;5011790;28;20458;-61
2021/10/09 02:06:32;;;;;;;45.88;23.17;;;;;;;;;;5012348;28;20501;-61
2021/10/09 02:08:59;;;;;;;46.58;22.90;;;;;;;;;;5011979;28;20046;-59
2021/10/09 02:11:34;;;;;;;42.58;21.25;;;;;;;;;;5011955;28;20128;-61
2021/10/09 02:14:06;;;;;;;50.53;20.85;;;;;;;;;;5011622;28;20140;-60
2021/10/09 02:17:11;;;;;;;44.50;21.90;;;;;;;;;;5011951;28;20057;-60
2021/10/09 02:27:48;;;;;;;45.95;22.63;;;;;;;;;;5010782;28;20042;-61
2021/10/09 02:30:17;;;;;;;47.42;21.90;;;;;;;;;;5011799;28;20053;-60
2021/10/09 02:32:43;;;;;;;50.10;23.92;;;;;;;;;;5011889;28;20054;-60
2021/10/09 02:35:11;;;;;;;50.03;23.25;;;;;;;;;;5011832;28;20132;-60
2021/10/09 02:37:38;;;;;;;47.70;24.23;;;;;;;;;;5011809;28;20096;-62
2021/10/09 02:40:05;;;;;;;53.38;24.27;;;;;;;;;;5011712;28;20509;-61
2021/10/09 02:42:32;;;;;;;48.63;23.75;;;;;;;;;;5011788;28;20056;-60
2021/10/09 02:44:59;;;;;;;56.03;25.10;;;;;;;;;;5011525;28;20050;-59
2021/10/09 02:47:28;;;;;;;47.72;25.85;;;;;;;;;;5011573;28;20061;-59
2021/10/09 02:49:55;;;;;;;51.08;24.00;;;;;;;;;;5011783;28;20054;-59
2021/10/09 02:52:22;;;;;;;53.58;24.27;;;;;;;;;;5011466;28;20054;-60
2021/10/09 02:54:49;;;;;;;47.65;24.23;;;;;;;;;;5011527;28;20050;-62
2021/10/09 02:57:16;;;;;;;52.50;24.83;;;;;;;;;;5028833;28;20059;-61
2021/10/09 02:59:43;;;;;;;57.55;26.17;;;;;;;;;;5031265;28;20049;-61
2021/10/09 03:02:10;;;;;;;49.63;23.25;;;;;;;;;;5031259;28;20371;-58
2021/10/09 03:04:38;;;;;;;46.40;24.13;;;;;;;;;;5033307;28;20449;-60
2021/10/09 03:07:05;;;;;;;52.25;25.50;;;;;;;;;;5034844;28;20053;-60
2021/10/09 03:09:32;;;;;;;48.72;24.63;;;;;;;;;;5034423;28;20056;-60
2021/10/09 03:11:59;;;;;;;56.17;25.02;;;;;;;;;;5034451;28;20060;-61
2021/10/09 03:14:26;;;;;;;52.50;24.35;;;;;;;;;;5034495;28;20136;-60
2021/10/09 03:16:53;;;;;;;52.08;24.20;;;;;;;;;;5034680;28;20056;-60
2021/10/09 03:19:20;;;;;;;48.67;23.90;;;;;;;;;;5034467;28;20407;-60
2021/10/09 03:21:48;;;;;;;49.88;23.33;;;;;;;;;;5034644;28;20068;-60
2021/10/09 03:24:15;;;;;;;48.67;23.13;;;;;;;;;;5034313;28;20546;-60
2021/10/09 03:26:42;;;;;;;52.28;23.77;;;;;;;;;;5034709;28;20055;-60
2021/10/09 03:29:09;;;;;;;54.55;25.77;;;;;;;;;;5034514;28;20050;-60
2021/10/09 03:31:36;;;;;;;55.55;24.60;;;;;;;;;;5034231;28;20148;-61
2021/10/09 03:34:03;;;;;;;52.42;25.00;;;;;;;;;;5034260;28;20061;-59
2021/10/09 03:36:30;;;;;;;52.47;24.10;;;;;;;;;;5034333;28;20136;-59
2021/10/09 03:38:59;;;;;;;49.42;24.45;;;;;;;;;;5034174;28;20063;-61
2021/10/09 03:41:26;;;;;;;53.03;25.30;;;;;;;;;;5034184;28;20089;-61
2021/10/09 03:43:53;;;;;;;51.13;24.33;;;;;;;;;;5033911;28;20049;-61
2021/10/09 03:46:24;;;;;;;60.22;23.73;;;;;;;;;;5034143;28;20434;-61
2021/10/09 03:48:58;;;;;;;52.58;26.63;;;;;;;;;;5034116;28;20053;-61
2021/10/09 03:54:11;;;;;;;51.95;25.42;;;;;;;;;;5033795;28;20564;-61
2021/10/09 03:56:38;;;;;;;52.05;25.08;;;;;;;;;;5021668;28;20064;-61
2021/10/09 03:59:05;;;;;;;53.83;23.27;;;;;;;;;;5014247;28;20050;-59
2021/10/09 04:01:33;;;;;;;54.20;25.40;;;;;;;;;;5013718;28;20052;-60
2021/10/09 04:04:00;;;;;;;55.42;25.33;;;;;;;;;;5013754;28;20065;-59
2021/10/09 04:06:27;;;;;;;50.03;24.92;;;;;;;;;;5013722;28;20057;-58
2021/10/09 04:08:55;;;;;;;58.42;24.63;;;;;;;;;;5013851;28;20045;-60
2021/10/09 04:11:23;;;;;;;52.50;24.08;;;;;;;;;;5014013;28;20051;-58
2021/10/09 04:13:50;;;;;;;48.95;22.88;;;;;;;;;;5013281;28;20487;-59
2021/10/09 04:16:17;;;;;;;49.15;24.75;;;;;;;;;;5013339;28;20058;-61
2021/10/09 04:18:44;;;;;;;49.97;23.35;;;;;;;;;;5013804;28;20053;-58
2021/10/09 04:21:11;;;;;;;53.67;24.88;;;;;;;;;;5013591;28;20053;-61
2021/10/09 04:23:38;;;;;;;55.00;25.50;;;;;;;;;;5013165;28;20046;-61
2021/10/09 04:26:05;;;;;;;47.63;23.30;;;;;;;;;;5013553;28;20136;-62
2021/10/09 04:28:34;;;;;;;54.83;25.33;;;;;;;;;;5013836;28;20132;-61
2021/10/09 04:31:02;;;;;;;46.58;24.25;;;;;;;;;;5013423;28;20368;-63
2021/10/09 04:33:30;;;;;;;54.90;25.50;;;;;;;;;;5013447;28;20060;-61
2021/10/09 04:35:57;;;;;;;54.78;25.55;;;;;;;;;;5013513;28;20058;-61
2021/10/09 04:38:24;;;;;;;57.17;26.90;;;;;;;;;;5013486;28;20060;-61
2021/10/09 04:40:51;;;;;;;55.83;24.67;;;;;;;;;;5013148;28;20050;-60
2021/10/09 04:43:18;;;;;;;52.78;26.70;;;;;;;;;;5012890;28;20093;-59
2021/10/09 04:45:46;;;;;;;54.25;25.65;;;;;;;;;;5013085;28;20059;-60
2021/10/09 04:48:13;;;;;;;56.08;26.40;;;;;;;;;;5013422;28;20071;-59
2021/10/09 04:50:40;;;;;;;54.60;26.30;;;;;;;;;;5013028;28;20141;-60
2021/10/09 04:53:07;;;;;;;54.58;25.58;;;;;;;;;;5013130;28;20124;-60
2021/10/09 04:55:34;;;;;;;59.28;26.65;;;;;;;;;;5016328;28;20045;-61
2021/10/09 04:58:02;;;;;;;61.00;25.73;;;;;;;;;;5032560;28;20045;-59
2021/10/09 05:00:29;;;;;;;55.83;28.20;;;;;;;;;;5032362;28;20054;-61
2021/10/09 05:02:58;;;;;;;61.40;30.08;;;;;;;;;;5032548;28;20092;-60
2021/10/09 05:05:25;;;;;;;58.90;26.88;;;;;;;;;;5032290;28;20421;-61
2021/10/09 05:07:52;;;;;;;59.95;28.17;;;;;;;;;;5032643;28;20440;-62
2021/10/09 05:10:19;;;;;;;62.90;28.73;;;;;;;;;;5032525;28;20049;-60
2021/10/09 05:12:46;;;;;;;57.53;27.65;;;;;;;;;;5032127;28;20099;-60
2021/10/09 05:15:13;;;;;;;65.93;29.73;;;;;;;;;;5032200;28;20406;-61
2021/10/09 05:17:40;;;;;;;61.03;28.50;;;;;;;;;;5032341;28;20136;-61
2021/10/09 05:20:09;;;;;;;65.20;29.10;;;;;;;;;;5032178;28;20512;-61
2021/10/09 05:22:36;;;;;;;67.28;29.85;;;;;;;;;;5032313;28;20065;-61
2021/10/09 05:25:04;;;;;;;61.42;28.25;;;;;;;;;;5031880;28;20072;-59
2021/10/09 05:27:34;;;;;;;69.07;29.77;;;;;;;;;;5031435;28;20107;-60
2021/10/09 05:30:06;;;;;;;71.97;31.08;;;;;;;;;;5032093;28;20096;-60
2021/10/09 05:32:35;;;;;;;67.38;29.70;;;;;;;;;;5032376;28;20160;-61
2021/10/09 05:35:02;;;;;;;70.00;30.88;;;;;;;;;;5031698;28;20093;-60
2021/10/09 05:37:31;;;;;;;63.92;28.30;;;;;;;;;;5031740;28;20049;-61
2021/10/09 05:39:59;;;;;;;68.05;30.75;;;;;;;;;;5031929;28;20103;-61
2021/10/09 05:42:26;;;;;;;73.68;31.55;;;;;;;;;;5031967;28;20467;-60
2021/10/09 05:44:53;;;;;;;64.97;30.17;;;;;;;;;;5031574;28;20471;-60
2021/10/09 05:47:20;;;;;;;75.15;31.02;;;;;;;;;;5032001;28;20420;-61
2021/10/09 05:49:51;;;;;;;69.35;31.05;;;;;;;;;;5032033;28;20475;-59
2021/10/09 05:52:23;;;;;;;69.35;30.80;;;;;;;;;;5032194;28;20062;-61
2021/10/09 05:54:56;;;;;;;68.75;31.38;;;;;;;;;;5031621;28;20063;-60
2021/10/09 05:57:30;;;;;;;74.07;32.75;;;;;;;;;;5013931;28;20466;-60
2021/10/09 06:00:16;;;;;;;77.90;31.65;;;;;;;;;;5012426;28;20104;-60
2021/10/09 07:00:45;;;;;;;82.45;33.72;;;;;;;;;;5150585;27;20588;-62
2021/10/09 07:03:18;;;;;;;80.72;33.20;;;;;;;;;;5150481;27;20488;-62
2021/10/09 07:05:46;;;;;;;78.53;34.08;;;;;;;;;;5150515;27;20050;-62
2021/10/09 07:08:13;;;;;;;86.22;35.42;;;;;;;;;;5150710;27;20073;-62
2021/10/09 07:10:45;;;;;;;76.53;32.17;;;;;;;;;;5150259;27;20142;-63
2021/10/09 07:13:12;;;;;;;82.38;33.55;;;;;;;;;;5150290;27;20111;-63
2021/10/09 07:15:40;;;;;;;89.95;38.28;;;;;;;;;;5150619;27;20476;-63
2021/10/09 07:18:10;;;;;;;71.80;29.63;;;;;;;;;;5150357;27;20528;-63
2021/10/09 07:20:37;;;;;;;74.33;32.43;;;;;;;;;;5149991;27;20043;-63
2021/10/09 07:23:07;;;;;;;69.03;31.23;;;;;;;;;;5150252;27;20133;-63
2021/10/09 07:25:35;;;;;;;72.85;30.85;;;;;;;;;;5150186;27;20173;-63
2021/10/09 07:28:02;;;;;;;74.72;31.83;;;;;;;;;;5149822;27;20482;-63
2021/10/09 07:30:29;;;;;;;75.65;30.45;;;;;;;;;;5149768;27;20046;-62
2021/10/09 07:32:56;;;;;;;78.13;34.90;;;;;;;;;;5150029;27;20047;-63
2021/10/09 07:35:25;;;;;;;77.15;32.80;;;;;;;;;;5149623;27;20617;-63
2021/10/09 07:37:52;;;;;;;86.00;37.95;;;;;;;;;;5149755;27;20442;-63
2021/10/09 07:40:20;;;;;;;84.80;37.03;;;;;;;;;;5149837;27;20391;-63
2021/10/09 07:42:48;;;;;;;82.82;35.50;;;;;;;;;;5149273;27;20053;-64
2021/10/09 07:45:15;;;;;;;80.70;35.97;;;;;;;;;;5149721;27;20050;-63
2021/10/09 07:47:42;;;;;;;88.60;40.28;;;;;;;;;;5149385;27;20050;-62
2021/10/09 07:50:10;;;;;;;100.68;45.85;;;;;;;;;;5149844;27;20364;-63
2021/10/09 07:52:37;;;;;;;82.35;33.72;;;;;;;;;;5149654;27;20042;-63
2021/10/09 07:55:05;;;;;;;77.90;31.73;;;;;;;;;;5149425;27;20126;-64
2021/10/09 07:57:33;;;;;;;76.43;33.97;;;;;;;;;;5129585;27;20488;-62
2021/10/09 08:00:00;;;;;;;74.13;33.35;;;;;;;;;;5120995;28;20087;-61
2021/10/09 08:02:27;;;;;;;71.97;33.28;;;;;;;;;;5114805;28;20050;-62
2021/10/09 08:04:54;;;;;;;78.18;33.67;;;;;;;;;;5114548;28;20507;-63
2021/10/09 08:07:21;;;;;;;75.88;32.40;;;;;;;;;;5114848;28;20507;-63
2021/10/09 08:09:48;;;;;;;85.78;34.17;;;;;;;;;;5114616;28;20714;-63
2021/10/09 08:12:15;;;;;;;85.53;36.25;;;;;;;;;;5114691;28;20048;-63
2021/10/09 08:14:43;;;;;;;71.88;31.75;;;;;;;;;;5114367;28;20048;-63
2021/10/09 08:17:10;;;;;;;70.15;31.00;;;;;;;;;;5114656;28;20054;-63
2021/10/09 08:19:38;;;;;;;76.20;31.85;;;;;;;;;;5114351;28;20044;-62
2021/10/09 08:22:08;;;;;;;69.60;31.52;;;;;;;;;;5114511;28;20473;-63
2021/10/09 08:24:39;;;;;;;68.03;30.75;;;;;;;;;;5114244;28;20051;-62
2021/10/09 08:35:33;;;;;;;72.65;31.58;;;;;;;;;;5114180;28;20054;-63
2021/10/09 08:40:45;;;;;;;71.72;31.70;;;;;;;;;;5114164;28;20549;-62
2021/10/09 08:43:12;;;;;;;72.78;33.63;;;;;;;;;;5113660;28;20047;-63
2021/10/09 08:45:40;;;;;;;83.20;36.85;;;;;;;;;;5113863;28;20054;-62
2021/10/09 08:48:07;;;;;;;73.40;31.48;;;;;;;;;;5113274;28;20053;-63
2021/10/09 08:50:35;;;;;;;77.53;33.00;;;;;;;;;;5113761;28;20075;-63
2021/10/09 08:53:07;;;;;;;66.80;29.15;;;;;;;;;;5113328;28;20051;-63
2021/10/09 08:55:37;;;;;;;65.78;29.00;;;;;;;;;;5117154;27;20051;-62
2021/10/09 08:58:07;;;;;;;65.95;29.15;;;;;;;;;;5134458;27;20535;-63
2021/10/09 09:00:42;;;;;;;;;;;;;;;;;;5134925;27;20054;-63
2021/10/09 09:03:13;;;;;;;65.20;28.30;;;;;;;;;;5134355;27;19948;-62
2021/10/09 09:05:54;;;;;;;78.05;32.75;;;;;;;;;;5134412;27;20138;-63
2021/10/09 09:08:31;;;;;;;107.82;41.50;;;;;;;;;;5134161;27;20050;-63
2021/10/09 09:39:06;;;;;;;58.13;28.55;;;;;;;;;;5074851;27;20059;-63
2021/10/09 09:41:44;;;;;;;72.45;29.33;;;;;;;;;;5133497;27;20054;-61
2021/10/09 09:44:12;;;;;;;69.78;28.88;;;;;;;;;;5133572;27;20119;-62
2021/10/09 09:46:39;;;;;;;67.43;29.10;;;;;;;;;;5133516;27;20051;-61
2021/10/09 09:49:07;;;;;;;71.55;30.83;;;;;;;;;;5133213;27;20411;-64
2021/10/09 09:51:38;;;;;;;69.78;29.23;;;;;;;;;;5133402;27;20047;-63
2021/10/09 09:54:06;;;;;;;63.13;28.00;;;;;;;;;;5132886;27;20104;-64
2021/10/09 09:56:33;;;;;;;69.18;31.65;;;;;;;;;;5121475;27;20040;-63
2021/10/09 09:59:01;;;;;;;70.45;30.73;;;;;;;;;;5112650;28;20051;-64
2021/10/09 10:01:32;;;;;;;61.78;29.90;;;;;;;;;;5112615;28;20051;-64
2021/10/09 10:04:00;;;;;;;64.72;29.58;;;;;;;;;;5112408;28;20048;-63
2021/10/09 10:06:28;;;;;;;64.80;29.80;;;;;;;;;;5112548;28;20526;-63
2021/10/09 10:08:57;;;;;;;61.42;28.42;;;;;;;;;;5112345;28;20047;-64
2021/10/09 10:11:25;;;;;;;62.53;28.67;;;;;;;;;;5112377;28;20067;-63
2021/10/09 10:13:53;;;;;;;69.25;31.00;;;;;;;;;;5112202;28;20126;-63
2021/10/09 10:16:20;;;;;;;71.13;33.13;;;;;;;;;;5112328;28;20135;-63
2021/10/09 10:18:52;;;;;;;60.90;30.15;;;;;;;;;;5112233;28;20065;-63
2021/10/09 10:21:41;;;;;;;64.90;29.25;;;;;;;;;;5112398;28;20546;-63
2021/10/09 10:24:11;;;;;;;63.60;28.92;;;;;;;;;;5111788;28;20050;-63
2021/10/09 10:26:38;;;;;;;58.25;26.50;;;;;;;;;;5112163;28;20051;-62
2021/10/09 10:29:24;;;;;;;62.97;27.00;;;;;;;;;;5111914;28;20392;-63
2021/10/09 10:32:19;;;;;;;56.58;26.40;;;;;;;;;;5112485;28;20043;-63
2021/10/09 10:34:49;;;;;;;53.25;26.50;;;;;;;;;;5064930;28;20078;-63
2021/10/09 10:37:36;;;;;;;54.28;24.08;;;;;;;;;;5112436;28;20047;-64
2021/10/09 10:40:06;;;;;;;57.10;25.80;;;;;;;;;;5105569;28;20047;-63
2021/10/09 10:42:33;;;;;;;51.92;26.38;;;;;;;;;;5112709;28;20063;-64
2021/10/09 10:45:07;;;;;;;54.03;26.92;;;;;;;;;;5112118;28;20056;-63
2021/10/09 10:47:52;;;;;;;48.42;24.63;;;;;;;;;;5112221;28;20723;-63
2021/10/09 10:51:05;;;;;;;55.70;25.85;;;;;;;;;;5111985;28;20056;-63
2021/10/09 10:54:10;;;;;;;63.30;28.25;;;;;;;;;;5111766;28;20047;-64
2021/10/09 10:56:59;;;;;;;47.22;23.95;;;;;;;;;;5112495;28;20063;-63
2021/10/09 10:59:32;;;;;;;49.63;23.80;;;;;;;;;;5132597;27;20043;-65
2021/10/09 11:02:12;;;;;;;50.28;24.17;;;;;;;;;;5132555;28;20646;-64
2021/10/09 11:04:40;;;;;;;;;;;;;;;;;;5132435;27;20045;-64
2021/10/09 11:07:07;;;;;;;54.30;25.48;;;;;;;;;;5132558;28;19923;-64
2021/10/09 11:09:36;;;;;;;50.47;23.42;;;;;;;;;;5132193;27;20043;-64
2021/10/09 11:12:04;;;;;;;52.65;23.17;;;;;;;;;;5132536;28;20107;-63
2021/10/09 11:14:33;;;;;;;51.15;25.17;;;;;;;;;;5131986;27;20047;-64
2021/10/09 11:17:00;;;;;;;46.45;23.02;;;;;;;;;;5132510;28;20126;-63
2021/10/09 11:19:42;;;;;;;45.33;22.83;;;;;;;;;;5132271;27;20051;-65
2021/10/09 11:22:09;;;;;;;78.22;30.90;;;;;;;;;;5132244;27;20051;-65
2021/10/09 11:24:42;;;;;;;71.43;29.92;;;;;;;;;;5131769;27;20051;-67
2021/10/09 11:27:08;;;;;;;52.70;24.33;;;;;;;;;;5132094;27;20061;-66
2021/10/09 11:29:38;;;;;;;52.95;25.73;;;;;;;;;;5131771;27;20043;-68
2021/10/09 11:32:07;;;;;;;46.97;24.27;;;;;;;;;;5132178;27;20043;-70
2021/10/09 11:34:48;;;;;;;46.00;24.58;;;;;;;;;;5132491;27;20051;-66
2021/10/09 11:37:15;;;;;;;45.83;22.92;;;;;;;;;;5135886;27;20069;-66
2021/10/09 11:39:46;;;;;;;48.65;23.02;;;;;;;;;;5135734;27;20130;-63
2021/10/09 11:42:15;;;;;;;48.45;24.88;;;;;;;;;;5135804;27;20131;-65
2021/10/09 11:44:48;;;;;;;45.80;21.55;;;;;;;;;;5135485;27;20047;-66
2021/10/09 11:55:50;;;;;;;38.13;21.52;;;;;;;;;;5109342;28;20644;-61
2021/10/09 11:58:17;;;;;;;44.35;22.30;;;;;;;;;;5109287;28;20051;-60
2021/10/09 12:00:44;;;;;;;50.05;22.13;;;;;;;;;;5108954;28;20083;-60
2021/10/09 12:03:30;;;;;;;39.65;19.65;;;;;;;;;;5108836;28;20040;-61
2021/10/09 12:06:00;;;;;;;40.85;20.27;;;;;;;;;;5098158;28;20071;-61
2021/10/09 12:08:28;;;;;;;42.15;21.70;;;;;;;;;;5109097;28;20044;-61
2021/10/09 12:11:16;;;;;;;40.63;19.30;;;;;;;;;;5108831;28;20044;-62
2021/10/09 12:13:47;;;;;;;38.05;20.02;;;;;;;;;;5108816;28;20404;-62
2021/10/09 12:16:14;;;;;;;41.83;19.25;;;;;;;;;;5108925;28;20044;-62
2021/10/09 12:18:54;;;;;;;37.25;18.60;;;;;;;;;;5108932;28;20086;-62
2021/10/09 12:21:24;;;;;;;34.50;18.95;;;;;;;;;;5109075;28;20068;-61
2021/10/09 12:23:52;;;;;;;;;;;;;;;;;;5109040;28;20481;-62
2021/10/09 12:26:21;;;;;;;36.53;17.98;;;;;;;;;;5108892;28;19923;-62
2021/10/09 12:29:12;;;;;;;35.67;18.33;;;;;;;;;;5108658;28;20083;-61
2021/10/09 12:31:43;;;;;;;35.13;18.20;;;;;;;;;;5108724;28;20054;-62
2021/10/09 12:34:30;;;;;;;39.05;18.27;;;;;;;;;;5108582;28;20101;-61
2021/10/09 12:37:13;;;;;;;32.85;18.27;;;;;;;;;;5117824;22;20045;-78
2021/10/09 12:39:41;;;;;;;35.50;19.60;;;;;;;;;;5092165;28;20067;-78
2021/10/09 12:42:08;;;;;;;36.33;18.77;;;;;;;;;;5092660;28;20102;-78
2021/10/09 12:44:35;;;;;;;36.08;15.82;;;;;;;;;;5091895;28;20421;-79
2021/10/09 12:47:02;;;;;;;33.92;16.10;;;;;;;;;;5092374;28;20045;-79
2021/10/09 12:49:29;;;;;;;29.98;15.27;;;;;;;;;;5092587;28;20044;-78
2021/10/09 12:51:56;;;;;;;36.00;17.00;;;;;;;;;;5092865;28;20055;-79
2021/10/09 12:54:25;;;;;;;28.65;16.13;;;;;;;;;;5100366;28;20044;-79
2021/10/09 12:56:52;;;;;;;29.58;14.93;;;;;;;;;;5110400;28;20055;-79
2021/10/09 12:59:19;;;;;;;29.45;16.30;;;;;;;;;;5105613;28;20131;-79
2021/10/09 13:01:46;;;;;;;31.98;17.83;;;;;;;;;;5088642;28;20048;-78
2021/10/09 13:04:13;;;;;;;31.80;15.15;;;;;;;;;;5084653;28;20082;-78
2021/10/09 13:06:40;;;;;;;29.38;14.82;;;;;;;;;;5084884;28;20107;-79
2021/10/09 13:09:07;;;;;;;24.38;13.93;;;;;;;;;;5081141;28;20048;-78
2021/10/09 13:11:44;;;;;;;29.05;14.30;;;;;;;;;;5079121;28;20045;-79
2021/10/09 13:14:11;;;;;;;28.08;14.43;;;;;;;;;;5078310;28;20045;-78
2021/10/09 13:16:38;;;;;;;26.98;14.15;;;;;;;;;;5077893;28;20561;-80
2021/10/09 13:19:05;;;;;;;26.83;14.25;;;;;;;;;;5077863;28;20045;-79
2021/10/09 13:21:32;;;;;;;26.65;14.52;;;;;;;;;;5077353;28;20072;-79
2021/10/09 13:23:59;;;;;;;28.17;15.70;;;;;;;;;;5077552;28;20050;-79
2021/10/09 13:26:26;;;;;;;24.65;13.50;;;;;;;;;;5076190;28;20056;-80
2021/10/09 13:28:54;;;;;;;23.02;12.48;;;;;;;;;;5080065;28;20063;-79
2021/10/09 13:31:21;;;;;;;20.10;11.25;;;;;;;;;;5069996;28;20040;-80
2021/10/09 13:33:48;;;;;;;23.38;12.05;;;;;;;;;;5078958;28;20076;-80
2021/10/09 13:36:16;;;;;;;24.88;13.40;;;;;;;;;;5070155;28;20045;-80
2021/10/09 13:38:44;;;;;;;21.63;11.93;;;;;;;;;;5065938;28;20498;-79
2021/10/09 13:41:11;;;;;;;32.22;13.48;;;;;;;;;;5066163;28;20041;-80
2021/10/09 13:43:39;;;;;;;26.40;14.50;;;;;;;;;;5065096;28;20045;-79
2021/10/09 13:46:08;;;;;;;21.95;13.05;;;;;;;;;;5067597;28;20048;-79
2021/10/09 13:48:35;;;;;;;25.67;13.18;;;;;;;;;;5067242;28;20049;-79
2021/10/09 13:51:12;;;;;;;24.90;13.40;;;;;;;;;;5065235;28;20056;-79
2021/10/09 13:53:39;;;;;;;25.70;12.77;;;;;;;;;;5066607;28;20102;-78
2021/10/09 13:56:06;;;;;;;30.23;15.32;;;;;;;;;;5066833;28;20463;-79
2021/10/09 13:58:33;;;;;;;26.42;14.25;;;;;;;;;;5066743;28;20048;-79
2021/10/09 14:01:00;;;;;;;29.73;15.60;;;;;;;;;;5070444;28;20083;-79
2021/10/09 14:03:30;;;;;;;26.38;15.50;;;;;;;;;;5068781;28;20422;-79
2021/10/09 14:05:57;;;;;;;24.52;14.25;;;;;;;;;;5066173;28;20045;-80
2021/10/09 14:08:25;;;;;;;27.10;15.35;;;;;;;;;;5056744;28;20045;-79
2021/10/09 14:10:52;;;;;;;30.55;15.65;;;;;;;;;;5069863;28;20144;-79
2021/10/09 14:13:19;;;;;;;34.35;17.48;;;;;;;;;;5063853;28;20052;-78
2021/10/09 14:15:46;;;;;;;30.10;14.70;;;;;;;;;;5059768;28;20045;-79
2021/10/09 14:18:16;;;;;;;26.65;13.75;;;;;;;;;;5064631;28;20056;-79
2021/10/09 14:20:46;;;;;;;27.50;14.80;;;;;;;;;;5069296;28;20048;-80
2021/10/09 14:23:13;;;;;;;27.02;14.65;;;;;;;;;;5075980;28;20048;-80
2021/10/09 14:25:40;;;;;;;30.83;14.98;;;;;;;;;;5074563;28;20040;-80
2021/10/09 14:28:09;;;;;;;27.27;13.68;;;;;;;;;;5074897;28;20059;-79
2021/10/09 14:30:36;;;;;;;27.83;15.07;;;;;;;;;;5071178;28;20080;-79
2021/10/09 14:33:03;;;;;;;30.75;14.68;;;;;;;;;;5071289;28;20113;-79
2021/10/09 14:35:29;;;;;;;25.85;14.57;;;;;;;;;;5072845;28;20045;-79
2021/10/09 14:37:58;;;;;;;28.13;13.73;;;;;;;;;;5074285;28;20044;-79
2021/10/09 14:40:25;;;;;;;26.23;14.68;;;;;;;;;;5072629;28;20049;-79
2021/10/09 14:42:52;;;;;;;26.13;14.15;;;;;;;;;;5074041;28;20045;-79
2021/10/09 14:45:19;;;;;;;27.05;13.85;;;;;;;;;;5077043;28;20041;-81
2021/10/09 14:47:50;;;;;;;27.83;14.48;;;;;;;;;;5070702;28;20041;-80
2021/10/09 14:50:40;;;;;;;22.88;13.50;;;;;;;;;;5075112;28;20048;-80
2021/10/09 15:18:10;;;;;;;25.40;13.65;;;;;;;;;;5062652;28;20186;-80
2021/10/09 15:20:37;;;;;;;25.20;13.45;;;;;;;;;;5062624;28;20048;-79
2021/10/09 15:23:06;;;;;;;21.85;12.98;;;;;;;;;;5054949;28;20454;-79
2021/10/09 15:25:34;;;;;;;24.73;12.90;;;;;;;;;;5055194;28;20044;-79
2021/10/09 15:28:01;;;;;;;21.73;11.45;;;;;;;;;;5060367;28;20059;-79
2021/10/09 15:30:28;;;;;;;21.45;12.57;;;;;;;;;;5060737;28;20044;-79
2021/10/09 15:32:55;;;;;;;26.25;12.65;;;;;;;;;;5054439;28;20554;-80
2021/10/09 15:35:23;;;;;;;22.50;11.65;;;;;;;;;;5054195;28;20079;-78
2021/10/09 15:37:50;;;;;;;23.55;12.82;;;;;;;;;;5063766;28;20056;-78
2021/10/09 15:40:19;;;;;;;25.15;13.18;;;;;;;;;;5074056;28;20052;-80
2021/10/09 15:42:49;;;;;;;24.52;12.52;;;;;;;;;;5064028;28;20460;-80
2021/10/09 15:45:18;;;;;;;23.33;12.07;;;;;;;;;;5060116;28;20049;-80
2021/10/09 15:47:45;;;;;;;29.25;13.07;;;;;;;;;;5054703;28;20153;-80
2021/10/09 15:50:12;;;;;;;22.00;11.45;;;;;;;;;;5053960;28;20052;-80
2021/10/09 15:52:41;;;;;;;23.13;11.95;;;;;;;;;;5067265;28;20051;-79
2021/10/09 15:55:08;;;;;;;24.20;12.73;;;;;;;;;;5067769;28;20049;-81
2021/10/09 15:57:35;;;;;;;26.85;13.77;;;;;;;;;;5067024;28;20403;-80
2021/10/09 16:00:06;;;;;;;22.50;13.07;;;;;;;;;;5064769;28;20041;-79
2021/10/09 16:02:34;;;;;;;30.35;14.63;;;;;;;;;;5083443;28;20044;-80
2021/10/09 16:05:02;;;;;;;25.73;12.45;;;;;;;;;;5085847;28;20040;-79
2021/10/09 16:07:29;;;;;;;28.23;12.70;;;;;;;;;;5084079;28;20056;-79
2021/10/09 16:09:56;;;;;;;21.60;11.70;;;;;;;;;;5078104;28;20119;-80
2021/10/09 16:12:23;;;;;;;22.33;11.52;;;;;;;;;;5068063;28;20055;-78
2021/10/09 16:14:49;;;;;;;22.73;11.95;;;;;;;;;;5064338;28;20048;-79
2021/10/09 16:17:25;;;;;;;20.98;11.68;;;;;;;;;;5064019;28;20045;-79
2021/10/09 16:19:53;;;;;;;25.35;13.55;;;;;;;;;;5062741;28;20594;-79
2021/10/09 16:22:20;;;;;;;25.02;12.27;;;;;;;;;;5061441;28;20079;-80
2021/10/09 16:24:48;;;;;;;23.88;12.65;;;;;;;;;;5066624;28;20045;-79
2021/10/09 16:27:15;;;;;;;23.88;13.38;;;;;;;;;;5063524;28;20071;-78
2021/10/09 16:29:42;;;;;;;28.63;12.80;;;;;;;;;;5065082;28;20041;-79
2021/10/09 16:32:09;;;;;;;27.65;12.88;;;;;;;;;;5064555;28;20076;-79
2021/10/09 16:34:38;;;;;;;22.35;11.57;;;;;;;;;;5063848;28;20052;-79
2021/10/09 16:37:05;;;;;;;22.77;11.43;;;;;;;;;;5075307;28;20056;-79
2021/10/09 16:39:32;;;;;;;23.90;12.10;;;;;;;;;;5075189;28;20048;-79
2021/10/09 16:41:58;;;;;;;21.73;11.73;;;;;;;;;;5075103;28;20045;-79
2021/10/09 16:44:26;;;;;;;39.38;19.55;;;;;;;;;;5075454;28;20045;-78
2021/10/09 16:46:54;;;;;;;21.40;11.93;;;;;;;;;;5080465;28;20048;-78
2021/10/09 16:49:21;;;;;;;26.33;12.93;;;;;;;;;;5079150;28;20045;-78
2021/10/09 16:51:50;;;;;;;22.52;12.50;;;;;;;;;;5079625;28;20476;-77